Login to view products. 
Saturday, June 24, 2017 (20:38 UTC)
Ras Al Khaimah International Airport
ICAO Code: OMRK
IATA Code: RKT
  • METAR OMRK 242000Z 00000KT CAVOK 30/23 Q0999 A2950=
  • TAF OMRK 241700Z 2418/2600 20005KT CAVOK BECMG 2506/2508 30012KT BECMG 2515/2517 VRB02KT=